Wetterdaten: Sonntag, 15.02.2015
Datum Zeit Temp. Auen Feucht Auen Luftdruck Regen Richtung Richtung Windben
15.02.2015 00:00 -2,6 C 95 % 1013,4 hPa 0,0 mm O 100 8,0 km/h (2 Bft)
15.02.2015 00:05 -2,6 C 95 % 1013,4 hPa 0,0 mm O-SO 109 8,0 km/h (2 Bft)
15.02.2015 00:10 -2,7 C 95 % 1013,4 hPa 0,0 mm SO 140 6,4 km/h (2 Bft)
15.02.2015 00:15 -2,7 C 95 % 1013,4 hPa 0,0 mm O-SO 102 4,8 km/h (1 Bft)
15.02.2015 00:20 -2,7 C 95 % 1013,4 hPa 0,0 mm O 95 11,3 km/h (2 Bft)
15.02.2015 00:25 -2,7 C 95 % 1013,4 hPa 0,0 mm O-NO 61 9,7 km/h (2 Bft)
15.02.2015 00:30 -2,7 C 95 % 1013,3 hPa 0,0 mm SO 139 6,4 km/h (2 Bft)
15.02.2015 00:35 -2,8 C 95 % 1013,3 hPa 0,0 mm SO 129 8,0 km/h (2 Bft)
15.02.2015 00:40 -2,9 C 95 % 1013,4 hPa 0,0 mm O-SO 115 6,4 km/h (2 Bft)
15.02.2015 00:45 -2,8 C 95 % 1013,3 hPa 0,0 mm O-SO 103 8,0 km/h (2 Bft)
15.02.2015 00:50 -2,8 C 95 % 1013,3 hPa 0,0 mm SO 129 9,7 km/h (2 Bft)
15.02.2015 00:55 -2,8 C 95 % 1013,3 hPa 0,0 mm SO 124 8,0 km/h (2 Bft)
15.02.2015 01:00 -2,9 C 95 % 1013,2 hPa 0,0 mm O-SO 120 8,0 km/h (2 Bft)
15.02.2015 01:05 -2,9 C 95 % 1013,3 hPa 0,0 mm O 83 6,4 km/h (2 Bft)
15.02.2015 01:10 -2,9 C 95 % 1013,2 hPa 0,0 mm O-SO 113 8,0 km/h (2 Bft)
15.02.2015 01:15 -2,9 C 95 % 1013,2 hPa 0,0 mm O 100 8,0 km/h (2 Bft)
15.02.2015 01:20 -2,9 C 95 % 1013,2 hPa 0,0 mm O 100 8,0 km/h (2 Bft)
15.02.2015 01:25 -3,0 C 95 % 1013,2 hPa 0,0 mm O-SO 117 6,4 km/h (2 Bft)
15.02.2015 01:30 -3,1 C 95 % 1013,2 hPa 0,0 mm SO 132 4,8 km/h (1 Bft)
15.02.2015 01:35 -3,2 C 95 % 1013,2 hPa 0,0 mm SO 145 6,4 km/h (2 Bft)
15.02.2015 01:40 -3,2 C 95 % 1013,2 hPa 0,0 mm SO 145 4,8 km/h (1 Bft)
15.02.2015 01:45 -3,2 C 96 % 1013,2 hPa 0,0 mm S-SO 153 4,8 km/h (1 Bft)
15.02.2015 01:50 -3,2 C 96 % 1013,2 hPa 0,0 mm SO 138 6,4 km/h (2 Bft)
15.02.2015 01:55 -3,1 C 96 % 1013,3 hPa 0,0 mm SO 124 6,4 km/h (2 Bft)
15.02.2015 02:00 -3,2 C 96 % 1013,3 hPa 0,0 mm SO 146 6,4 km/h (2 Bft)
15.02.2015 02:05 -3,2 C 95 % 1013,3 hPa 0,0 mm SO 146 4,8 km/h (1 Bft)
15.02.2015 02:10 -3,2 C 95 % 1013,5 hPa 0,0 mm S-SO 149 6,4 km/h (2 Bft)
15.02.2015 02:15 -3,1 C 95 % 1013,4 hPa 0,0 mm S-SO 150 6,4 km/h (2 Bft)
15.02.2015 02:20 -3,1 C 95 % 1013,4 hPa 0,0 mm S-SO 156 6,4 km/h (2 Bft)
15.02.2015 02:25 -3,1 C 96 % 1013,4 hPa 0,0 mm SO 126 6,4 km/h (2 Bft)
15.02.2015 02:30 -3,1 C 96 % 1013,4 hPa 0,0 mm SO 139 6,4 km/h (2 Bft)
15.02.2015 02:35 -3,1 C 96 % 1013,3 hPa 0,0 mm SO 130 6,4 km/h (2 Bft)
15.02.2015 02:40 -3,1 C 95 % 1013,4 hPa 0,0 mm SO 131 8,0 km/h (2 Bft)
15.02.2015 02:45 -3,1 C 96 % 1013,4 hPa 0,0 mm O-SO 117 6,4 km/h (2 Bft)
15.02.2015 02:50 -3,1 C 95 % 1013,4 hPa 0,0 mm O-SO 119 6,4 km/h (2 Bft)
15.02.2015 02:55 -3,1 C 95 % 1013,3 hPa 0,0 mm SO 127 6,4 km/h (2 Bft)
15.02.2015 03:00 -3,2 C 95 % 1013,3 hPa 0,0 mm O-SO 123 4,8 km/h (1 Bft)
15.02.2015 03:05 -3,2 C 95 % 1013,3 hPa 0,0 mm O-SO 110 8,0 km/h (2 Bft)
15.02.2015 03:10 -3,2 C 95 % 1013,3 hPa 0,0 mm SO 126 6,4 km/h (2 Bft)
15.02.2015 03:15 -3,2 C 95 % 1013,3 hPa 0,0 mm SO 129 4,8 km/h (1 Bft)
15.02.2015 03:20 -3,2 C 95 % 1013,3 hPa 0,0 mm SO 126 4,8 km/h (1 Bft)
15.02.2015 03:25 -3,3 C 95 % 1013,3 hPa 0,0 mm SO 128 4,8 km/h (1 Bft)
15.02.2015 03:30 -3,3 C 96 % 1013,3 hPa 0,0 mm O-SO 117 6,4 km/h (2 Bft)
15.02.2015 03:35 -3,3 C 96 % 1013,3 hPa 0,0 mm SO 137 6,4 km/h (2 Bft)
15.02.2015 03:40 -3,4 C 96 % 1013,2 hPa 0,0 mm O-SO 121 8,0 km/h (2 Bft)
15.02.2015 03:45 -3,4 C 96 % 1013,2 hPa 0,0 mm SO 137 6,4 km/h (2 Bft)
15.02.2015 03:50 -3,4 C 96 % 1013,2 hPa 0,0 mm SO 136 6,4 km/h (2 Bft)
15.02.2015 03:55 -3,4 C 96 % 1013,2 hPa 0,0 mm SO 133 4,8 km/h (1 Bft)
15.02.2015 04:00 -3,4 C 96 % 1013,2 hPa 0,0 mm SO 134 4,8 km/h (1 Bft)
15.02.2015 04:05 -3,4 C 96 % 1013,3 hPa 0,0 mm SO 133 6,4 km/h (2 Bft)
15.02.2015 04:10 -3,4 C 95 % 1013,3 hPa 0,0 mm SO 135 6,4 km/h (2 Bft)
15.02.2015 04:15 -3,4 C 95 % 1013,3 hPa 0,0 mm S-SO 150 6,4 km/h (2 Bft)
15.02.2015 04:20 -3,4 C 95 % 1013,3 hPa 0,0 mm S-SO 150 4,8 km/h (1 Bft)
15.02.2015 04:25 -3,4 C 95 % 1013,3 hPa 0,0 mm SO 139 8,0 km/h (2 Bft)
15.02.2015 04:30 -3,4 C 95 % 1013,3 hPa 0,0 mm O-SO 113 4,8 km/h (1 Bft)
15.02.2015 04:35 -3,5 C 95 % 1013,3 hPa 0,0 mm O-SO 113 3,2 km/h (1 Bft)
15.02.2015 04:40 -3,5 C 95 % 1013,3 hPa 0,0 mm O-SO 113 4,8 km/h (1 Bft)
15.02.2015 04:45 -3,5 C 95 % 1013,3 hPa 0,0 mm O-SO 113 3,2 km/h (1 Bft)
15.02.2015 04:50 -3,5 C 95 % 1013,3 hPa 0,0 mm SO 136 8,0 km/h (2 Bft)
15.02.2015 04:55 -3,4 C 95 % 1013,3 hPa 0,0 mm SO 139 6,4 km/h (2 Bft)
15.02.2015 05:00 -3,4 C 95 % 1013,3 hPa 0,0 mm O 96 8,0 km/h (2 Bft)
15.02.2015 05:05 -3,4 C 95 % 1013,3 hPa 0,0 mm O-SO 123 8,0 km/h (2 Bft)
15.02.2015 05:10 -3,6 C 95 % 1013,3 hPa 0,0 mm O-SO 121 6,4 km/h (2 Bft)
15.02.2015 05:15 -3,6 C 95 % 1013,3 hPa 0,0 mm SO 128 8,0 km/h (2 Bft)
15.02.2015 05:20 -3,4 C 95 % 1013,5 hPa 0,0 mm O 80 9,7 km/h (2 Bft)
15.02.2015 05:25 -3,4 C 96 % 1013,4 hPa 0,0 mm O 89 9,7 km/h (2 Bft)
15.02.2015 05:30 -3,4 C 96 % 1013,5 hPa 0,0 mm O 88 9,7 km/h (2 Bft)
15.02.2015 05:35 -3,4 C 95 % 1013,6 hPa 0,0 mm O-NO 76 11,3 km/h (2 Bft)
15.02.2015 05:40 -3,4 C 96 % 1013,6 hPa 0,0 mm O 92 11,3 km/h (2 Bft)
15.02.2015 05:45 -3,4 C 95 % 1013,6 hPa 0,0 mm O-SO 108 12,9 km/h (3 Bft)
15.02.2015 05:50 -3,5 C 95 % 1013,6 hPa 0,0 mm O 99 14,5 km/h (3 Bft)
15.02.2015 05:55 -3,4 C 95 % 1013,6 hPa 0,0 mm O-SO 102 12,9 km/h (3 Bft)
15.02.2015 06:00 -3,4 C 96 % 1013,6 hPa 0,0 mm O 90 12,9 km/h (3 Bft)
15.02.2015 06:05 -3,4 C 95 % 1013,6 hPa 0,0 mm O-SO 113 11,3 km/h (2 Bft)
15.02.2015 06:10 -3,4 C 95 % 1013,6 hPa 0,0 mm O 101 12,9 km/h (3 Bft)
15.02.2015 06:15 -3,4 C 96 % 1013,6 hPa 0,0 mm O-SO 118 12,9 km/h (3 Bft)
15.02.2015 06:20 -3,4 C 96 % 1013,5 hPa 0,0 mm O-SO 114 11,3 km/h (2 Bft)
15.02.2015 06:25 -3,4 C 96 % 1013,5 hPa 0,0 mm O-NO 78 12,9 km/h (3 Bft)
15.02.2015 06:30 -3,4 C 96 % 1013,6 hPa 0,0 mm O-SO 104 12,9 km/h (3 Bft)
15.02.2015 06:35 -3,4 C 96 % 1013,6 hPa 0,0 mm O 81 12,9 km/h (3 Bft)
15.02.2015 06:40 -3,4 C 96 % 1013,5 hPa 0,0 mm O 99 11,3 km/h (2 Bft)
15.02.2015 06:45 -3,4 C 95 % 1013,6 hPa 0,0 mm O 93 11,3 km/h (2 Bft)
15.02.2015 06:50 -3,4 C 96 % 1013,7 hPa 0,0 mm O-SO 119 11,3 km/h (2 Bft)
15.02.2015 06:55 -3,4 C 95 % 1013,7 hPa 0,0 mm O-SO 114 12,9 km/h (3 Bft)
15.02.2015 07:00 -3,3 C 95 % 1013,7 hPa 0,0 mm O 98 11,3 km/h (2 Bft)
15.02.2015 07:05 -3,3 C 95 % 1013,7 hPa 0,0 mm O-SO 112 14,5 km/h (3 Bft)
15.02.2015 07:10 -3,3 C 95 % 1013,8 hPa 0,0 mm O-SO 115 12,9 km/h (3 Bft)
15.02.2015 07:15 -3,3 C 95 % 1013,7 hPa 0,0 mm O 95 11,3 km/h (2 Bft)
15.02.2015 07:20 -3,3 C 95 % 1013,7 hPa 0,0 mm O-SO 107 11,3 km/h (2 Bft)
15.02.2015 07:25 -3,3 C 95 % 1013,7 hPa 0,0 mm O-SO 111 14,5 km/h (3 Bft)
15.02.2015 07:30 -3,3 C 95 % 1013,8 hPa 0,0 mm O-SO 119 11,3 km/h (2 Bft)
15.02.2015 07:35 -3,3 C 95 % 1013,8 hPa 0,0 mm O-SO 111 11,3 km/h (2 Bft)
15.02.2015 07:40 -3,3 C 95 % 1013,9 hPa 0,0 mm O-SO 121 16,1 km/h (3 Bft)
15.02.2015 07:45 -3,3 C 95 % 1013,9 hPa 0,0 mm O 92 14,5 km/h (3 Bft)
15.02.2015 07:50 -3,2 C 95 % 1013,8 hPa 0,0 mm O 86 12,9 km/h (3 Bft)
15.02.2015 07:55 -3,2 C 95 % 1013,9 hPa 0,0 mm O 96 12,9 km/h (3 Bft)
15.02.2015 08:00 -3,2 C 96 % 1014,0 hPa 0,0 mm O 94 11,3 km/h (2 Bft)
15.02.2015 08:05 -3,2 C 96 % 1014,0 hPa 0,0 mm O 91 11,3 km/h (2 Bft)
15.02.2015 08:10 -3,2 C 96 % 1014,0 hPa 0,0 mm O 80 12,9 km/h (3 Bft)
15.02.2015 08:15 -3,1 C 96 % 1014,1 hPa 0,0 mm O-SO 118 12,9 km/h (3 Bft)
15.02.2015 08:20 -3,1 C 96 % 1014,1 hPa 0,0 mm O-SO 105 12,9 km/h (3 Bft)
15.02.2015 08:25 -3,1 C 96 % 1014,1 hPa 0,0 mm O-SO 102 11,3 km/h (2 Bft)
15.02.2015 08:30 -3,1 C 96 % 1014,2 hPa 0,0 mm O-SO 121 12,9 km/h (3 Bft)
15.02.2015 08:35 -3,1 C 95 % 1014,2 hPa 0,0 mm O-SO 113 14,5 km/h (3 Bft)
15.02.2015 08:40 -3,0 C 95 % 1014,2 hPa 0,0 mm O-SO 103 11,3 km/h (2 Bft)
15.02.2015 08:45 -3,0 C 95 % 1014,2 hPa 0,0 mm O 88 12,9 km/h (3 Bft)
15.02.2015 08:50 -3,0 C 95 % 1014,3 hPa 0,0 mm O-SO 109 12,9 km/h (3 Bft)
15.02.2015 08:55 -2,9 C 95 % 1014,3 hPa 0,0 mm O 97 14,5 km/h (3 Bft)
15.02.2015 09:00 -2,9 C 95 % 1014,3 hPa 0,0 mm SO 131 12,9 km/h (3 Bft)
15.02.2015 09:05 -2,9 C 95 % 1014,3 hPa 0,0 mm O 98 14,5 km/h (3 Bft)
15.02.2015 09:10 -2,9 C 96 % 1014,2 hPa 0,0 mm O 92 14,5 km/h (3 Bft)
15.02.2015 09:15 -2,8 C 96 % 1014,3 hPa 0,0 mm O 89 14,5 km/h (3 Bft)
15.02.2015 09:20 -2,8 C 96 % 1014,2 hPa 0,0 mm O-NO 74 14,5 km/h (3 Bft)
15.02.2015 09:25 -2,7 C 95 % 1014,3 hPa 0,0 mm O-SO 113 12,9 km/h (3 Bft)
15.02.2015 09:30 -2,6 C 95 % 1014,3 hPa 0,0 mm O 92 14,5 km/h (3 Bft)
15.02.2015 09:35 -2,6 C 95 % 1014,3 hPa 0,0 mm O 98 16,1 km/h (3 Bft)
15.02.2015 09:40 -2,5 C 96 % 1014,3 hPa 0,0 mm O 94 12,9 km/h (3 Bft)
15.02.2015 09:45 -2,4 C 96 % 1014,3 hPa 0,0 mm O 87 14,5 km/h (3 Bft)
15.02.2015 09:50 -2,3 C 95 % 1014,3 hPa 0,0 mm O-SO 103 16,1 km/h (3 Bft)
15.02.2015 09:55 -2,3 C 95 % 1014,4 hPa 0,0 mm O-NO 76 14,5 km/h (3 Bft)
15.02.2015 10:00 -2,3 C 95 % 1014,3 hPa 0,0 mm O 92 16,1 km/h (3 Bft)
15.02.2015 10:05 -2,3 C 95 % 1014,3 hPa 0,0 mm O-NO 66 16,1 km/h (3 Bft)
15.02.2015 10:10 -2,2 C 95 % 1014,3 hPa 0,0 mm O-NO 67 16,1 km/h (3 Bft)
15.02.2015 10:15 -2,1 C 95 % 1014,3 hPa 0,0 mm O 94 16,1 km/h (3 Bft)
15.02.2015 10:20 -2,0 C 95 % 1014,4 hPa 0,0 mm O-NO 78 14,5 km/h (3 Bft)
15.02.2015 10:25 -1,9 C 95 % 1014,4 hPa 0,0 mm O 93 16,1 km/h (3 Bft)
15.02.2015 10:30 -1,9 C 95 % 1014,4 hPa 0,0 mm O 99 20,9 km/h (4 Bft)
15.02.2015 10:35 -1,8 C 95 % 1014,3 hPa 0,0 mm O-NO 76 16,1 km/h (3 Bft)
15.02.2015 10:40 -1,7 C 95 % 1014,2 hPa 0,0 mm O-NO 61 16,1 km/h (3 Bft)
15.02.2015 10:45 -1,7 C 95 % 1014,3 hPa 0,0 mm O 80 16,1 km/h (3 Bft)
15.02.2015 10:50 -1,5 C 95 % 1014,2 hPa 0,0 mm O 96 16,1 km/h (3 Bft)
15.02.2015 10:55 -1,4 C 95 % 1014,3 hPa 0,0 mm O 101 16,1 km/h (3 Bft)
15.02.2015 11:00 -1,3 C 95 % 1014,4 hPa 0,0 mm O-NO 70 17,7 km/h (3 Bft)
15.02.2015 11:05 -1,3 C 95 % 1014,3 hPa 0,0 mm O 90 14,5 km/h (3 Bft)
15.02.2015 11:10 -1,2 C 94 % 1014,3 hPa 0,0 mm O 84 16,1 km/h (3 Bft)
15.02.2015 11:15 -1,0 C 94 % 1014,3 hPa 0,0 mm NO 54 16,1 km/h (3 Bft)
15.02.2015 11:20 -1,1 C 94 % 1014,3 hPa 0,0 mm O-NO 78 16,1 km/h (3 Bft)
15.02.2015 11:25 -1,1 C 94 % 1014,3 hPa 0,0 mm O 92 17,7 km/h (3 Bft)
15.02.2015 11:30 -0,8 C 94 % 1014,3 hPa 0,0 mm O 90 17,7 km/h (3 Bft)
15.02.2015 11:35 -0,8 C 94 % 1014,3 hPa 0,0 mm O 82 17,7 km/h (3 Bft)
15.02.2015 11:40 -0,8 C 93 % 1014,3 hPa 0,0 mm O 95 17,7 km/h (3 Bft)
15.02.2015 11:45 -0,7 C 93 % 1014,2 hPa 0,0 mm O-NO 76 16,1 km/h (3 Bft)
15.02.2015 11:50 -0,6 C 93 % 1014,2 hPa 0,0 mm O-SO 103 17,7 km/h (3 Bft)
15.02.2015 11:55 -0,7 C 93 % 1014,2 hPa 0,0 mm O 80 17,7 km/h (3 Bft)
15.02.2015 12:00 -0,6 C 93 % 1014,2 hPa 0,0 mm O 88 17,7 km/h (3 Bft)
15.02.2015 12:05 -0,5 C 93 % 1014,2 hPa 0,0 mm O-NO 75 17,7 km/h (3 Bft)
15.02.2015 12:10 -0,3 C 93 % 1014,1 hPa 0,0 mm O 82 19,3 km/h (3 Bft)
15.02.2015 12:15 -0,2 C 93 % 1014,1 hPa 0,0 mm O-NO 74 17,7 km/h (3 Bft)
15.02.2015 12:20 -0,2 C 92 % 1014,1 hPa 0,0 mm O 80 19,3 km/h (3 Bft)
15.02.2015 12:25 -0,3 C 93 % 1014,0 hPa 0,0 mm O 86 20,9 km/h (4 Bft)
15.02.2015 12:30 -0,3 C 93 % 1014,0 hPa 0,0 mm O-NO 70 17,7 km/h (3 Bft)
15.02.2015 12:35 -0,1 C 93 % 1013,9 hPa 0,0 mm O 80 17,7 km/h (3 Bft)
15.02.2015 12:40 -0,1 C 92 % 1013,9 hPa 0,0 mm O 99 17,7 km/h (3 Bft)
15.02.2015 12:45 0,2 C 92 % 1013,9 hPa 0,0 mm O-NO 75 16,1 km/h (3 Bft)
15.02.2015 12:50 0,2 C 92 % 1013,9 hPa 0,0 mm O 79 16,1 km/h (3 Bft)
15.02.2015 12:55 0,3 C 92 % 1014,0 hPa 0,0 mm O 85 17,7 km/h (3 Bft)
15.02.2015 13:00 0,2 C 92 % 1013,9 hPa 0,0 mm O 94 20,9 km/h (4 Bft)
15.02.2015 13:05 0,3 C 92 % 1013,9 hPa 0,0 mm O 96 16,1 km/h (3 Bft)
15.02.2015 13:10 0,3 C 92 % 1013,9 hPa 0,0 mm O-NO 71 19,3 km/h (3 Bft)
15.02.2015 13:15 0,3 C 92 % 1013,9 hPa 0,0 mm O 80 17,7 km/h (3 Bft)
15.02.2015 13:20 0,3 C 92 % 1013,8 hPa 0,0 mm O-NO 63 16,1 km/h (3 Bft)
15.02.2015 13:25 0,3 C 92 % 1013,9 hPa 0,0 mm O-SO 102 17,7 km/h (3 Bft)
15.02.2015 13:30 0,4 C 92 % 1013,8 hPa 0,0 mm O-NO 61 17,7 km/h (3 Bft)
15.02.2015 13:35 0,4 C 92 % 1013,9 hPa 0,0 mm O 90 17,7 km/h (3 Bft)
15.02.2015 13:40 0,4 C 92 % 1013,8 hPa 0,0 mm O 90 19,3 km/h (3 Bft)
15.02.2015 13:45 0,4 C 92 % 1013,7 hPa 0,0 mm O 90 16,1 km/h (3 Bft)
15.02.2015 13:50 0,4 C 92 % 1013,7 hPa 0,0 mm O-NO 71 17,7 km/h (3 Bft)
15.02.2015 13:55 0,4 C 92 % 1013,7 hPa 0,0 mm O 85 17,7 km/h (3 Bft)
15.02.2015 14:00 0,5 C 92 % 1013,8 hPa 0,0 mm O-NO 76 16,1 km/h (3 Bft)
15.02.2015 14:05 0,6 C 92 % 1013,6 hPa 0,0 mm O 82 14,5 km/h (3 Bft)
15.02.2015 14:10 0,6 C 92 % 1013,7 hPa 0,0 mm O 94 17,7 km/h (3 Bft)
15.02.2015 14:15 0,6 C 92 % 1013,7 hPa 0,0 mm O 82 17,7 km/h (3 Bft)
15.02.2015 14:20 0,6 C 92 % 1013,8 hPa 0,0 mm O 84 17,7 km/h (3 Bft)
15.02.2015 14:25 0,6 C 92 % 1013,8 hPa 0,0 mm O-NO 76 17,7 km/h (3 Bft)
15.02.2015 14:30 0,6 C 92 % 1013,7 hPa 0,0 mm O-NO 59 16,1 km/h (3 Bft)
15.02.2015 14:35 0,7 C 92 % 1013,7 hPa 0,0 mm O-NO 71 16,1 km/h (3 Bft)
15.02.2015 14:40 0,7 C 92 % 1013,7 hPa 0,0 mm O 92 20,9 km/h (4 Bft)
15.02.2015 14:45 0,7 C 93 % 1013,7 hPa 0,0 mm O 82 16,1 km/h (3 Bft)
15.02.2015 14:50 0,8 C 92 % 1013,7 hPa 0,0 mm O-NO 69 20,9 km/h (4 Bft)
15.02.2015 14:55 0,8 C 92 % 1013,9 hPa 0,0 mm O 88 16,1 km/h (3 Bft)
15.02.2015 15:00 0,9 C 92 % 1013,6 hPa 0,0 mm O 98 17,7 km/h (3 Bft)
15.02.2015 15:05 0,9 C 92 % 1013,7 hPa 0,0 mm O-SO 103 20,9 km/h (4 Bft)
15.02.2015 15:10 0,9 C 92 % 1013,7 hPa 0,0 mm O 84 16,1 km/h (3 Bft)
15.02.2015 15:15 0,9 C 92 % 1013,7 hPa 0,0 mm O 93 16,1 km/h (3 Bft)
15.02.2015 15:20 0,9 C 92 % 1013,6 hPa 0,0 mm O 82 14,5 km/h (3 Bft)
15.02.2015 15:25 1,0 C 92 % 1013,7 hPa 0,0 mm O-NO 78 16,1 km/h (3 Bft)
15.02.2015 15:30 0,9 C 92 % 1013,7 hPa 0,0 mm O 86 16,1 km/h (3 Bft)
15.02.2015 15:35 0,9 C 92 % 1013,7 hPa 0,0 mm O 100 16,1 km/h (3 Bft)
15.02.2015 15:40 0,9 C 92 % 1013,8 hPa 0,0 mm O-NO 74 16,1 km/h (3 Bft)
15.02.2015 15:45 0,9 C 92 % 1013,8 hPa 0,0 mm O 86 16,1 km/h (3 Bft)
15.02.2015 15:50 0,9 C 92 % 1013,7 hPa 0,0 mm O-NO 76 16,1 km/h (3 Bft)
15.02.2015 15:55 0,8 C 92 % 1013,7 hPa 0,0 mm O 95 14,5 km/h (3 Bft)
15.02.2015 16:00 0,8 C 92 % 1013,7 hPa 0,0 mm O 81 14,5 km/h (3 Bft)
15.02.2015 16:05 0,7 C 92 % 1013,8 hPa 0,0 mm O-NO 67 14,5 km/h (3 Bft)
15.02.2015 16:10 0,7 C 92 % 1013,7 hPa 0,0 mm O 95 12,9 km/h (3 Bft)
15.02.2015 16:15 0,6 C 92 % 1013,7 hPa 0,0 mm O-NO 76 14,5 km/h (3 Bft)
15.02.2015 16:20 0,6 C 92 % 1013,7 hPa 0,0 mm O-NO 67 11,3 km/h (2 Bft)
15.02.2015 16:25 0,5 C 93 % 1013,7 hPa 0,0 mm O-NO 78 11,3 km/h (2 Bft)
15.02.2015 16:30 0,4 C 93 % 1013,8 hPa 0,0 mm O-NO 67 12,9 km/h (3 Bft)
15.02.2015 16:35 0,4 C 93 % 1013,9 hPa 0,0 mm O-NO 78 14,5 km/h (3 Bft)
15.02.2015 16:40 0,4 C 93 % 1013,9 hPa 0,0 mm O 82 14,5 km/h (3 Bft)
15.02.2015 16:45 0,4 C 93 % 1013,9 hPa 0,0 mm O 82 16,1 km/h (3 Bft)
15.02.2015 16:50 0,4 C 93 % 1014,0 hPa 0,0 mm O-NO 77 12,9 km/h (3 Bft)
15.02.2015 16:55 0,2 C 93 % 1014,0 hPa 0,0 mm O 88 9,7 km/h (2 Bft)
15.02.2015 17:00 0,1 C 93 % 1014,0 hPa 0,0 mm O-NO 64 12,9 km/h (3 Bft)
15.02.2015 17:05 0,0 C 93 % 1014,0 hPa 0,0 mm O-NO 74 11,3 km/h (2 Bft)
15.02.2015 17:10 -0,1 C 93 % 1014,0 hPa 0,0 mm N-NO 27 11,3 km/h (2 Bft)
15.02.2015 17:15 -0,2 C 93 % 1014,1 hPa 0,0 mm O 83 9,7 km/h (2 Bft)
15.02.2015 17:20 -0,2 C 93 % 1014,2 hPa 0,0 mm O 80 12,9 km/h (3 Bft)
15.02.2015 17:25 -0,2 C 94 % 1014,2 hPa 0,0 mm O 89 11,3 km/h (2 Bft)
15.02.2015 17:30 -0,3 C 94 % 1014,3 hPa 0,0 mm O 85 11,3 km/h (2 Bft)
15.02.2015 17:35 -0,3 C 94 % 1014,3 hPa 0,0 mm NO 51 9,7 km/h (2 Bft)
15.02.2015 17:40 -0,6 C 94 % 1014,4 hPa 0,0 mm O 82 6,4 km/h (2 Bft)
15.02.2015 17:45 -0,6 C 94 % 1014,5 hPa 0,0 mm O 99 9,7 km/h (2 Bft)
15.02.2015 17:50 -0,6 C 94 % 1014,5 hPa 0,0 mm O 87 4,8 km/h (1 Bft)
15.02.2015 17:55 -0,7 C 94 % 1014,6 hPa 0,0 mm O 85 4,8 km/h (1 Bft)
15.02.2015 18:00 -0,8 C 94 % 1014,6 hPa 0,0 mm O 79 4,8 km/h (1 Bft)
15.02.2015 18:05 -0,5 C 94 % 1014,6 hPa 0,0 mm O 96 8,0 km/h (2 Bft)
15.02.2015 18:10 -0,7 C 94 % 1014,7 hPa 0,0 mm O 86 8,0 km/h (2 Bft)
15.02.2015 18:15 -0,8 C 94 % 1014,7 hPa 0,0 mm O 83 9,7 km/h (2 Bft)
15.02.2015 18:20 -0,8 C 94 % 1014,8 hPa 0,0 mm O 90 3,2 km/h (1 Bft)
15.02.2015 18:25 -0,9 C 94 % 1014,9 hPa 0,0 mm O 90 4,8 km/h (1 Bft)
15.02.2015 18:30 -1,3 C 94 % 1015,0 hPa 0,0 mm O 90 4,8 km/h (1 Bft)
15.02.2015 18:35 -1,6 C 94 % 1015,0 hPa 0,0 mm O 90 3,2 km/h (1 Bft)
15.02.2015 18:40 -1,3 C 94 % 1015,0 hPa 0,0 mm O 90 0,0 km/h (0 Bft)
15.02.2015 18:45 -1,3 C 95 % 1015,1 hPa 0,0 mm O 90 0,0 km/h (0 Bft)
15.02.2015 18:50 -1,3 C 94 % 1015,1 hPa 0,0 mm O 90 0,0 km/h (0 Bft)
15.02.2015 18:55 -1,5 C 95 % 1015,2 hPa 0,0 mm O 90 1,6 km/h (1 Bft)
15.02.2015 19:00 -1,6 C 94 % 1015,3 hPa 0,0 mm O 90 0,0 km/h (0 Bft)
15.02.2015 19:05 -1,6 C 95 % 1015,3 hPa 0,0 mm O 90 0,0 km/h (0 Bft)
15.02.2015 19:10 -1,6 C 95 % 1015,4 hPa 0,0 mm O 90 0,0 km/h (0 Bft)
15.02.2015 19:15 -1,7 C 95 % 1015,4 hPa 0,0 mm O 90 0,0 km/h (0 Bft)
15.02.2015 19:20 -1,7 C 95 % 1015,4 hPa 0,0 mm O 90 0,0 km/h (0 Bft)
15.02.2015 19:25 -1,9 C 95 % 1015,5 hPa 0,0 mm O 90 0,0 km/h (0 Bft)
15.02.2015 19:30 -2,1 C 95 % 1015,5 hPa 0,0 mm O 90 0,0 km/h (0 Bft)
15.02.2015 19:35 -2,2 C 95 % 1015,5 hPa 0,0 mm O 90 0,0 km/h (0 Bft)
15.02.2015 19:40 -2,2 C 95 % 1015,7 hPa 0,0 mm O 90 0,0 km/h (0 Bft)
15.02.2015 19:45 -2,2 C 95 % 1015,7 hPa 0,0 mm O 90 0,0 km/h (0 Bft)
15.02.2015 19:50 -2,3 C 95 % 1015,8 hPa 0,0 mm O 90 0,0 km/h (0 Bft)
15.02.2015 19:55 -2,4 C 95 % 1015,8 hPa 0,0 mm O 90 0,0 km/h (0 Bft)
15.02.2015 20:00 -2,3 C 95 % 1015,8 hPa 0,0 mm O 90 0,0 km/h (0 Bft)
15.02.2015 20:05 -2,5 C 95 % 1015,9 hPa 0,0 mm O 90 0,0 km/h (0 Bft)
15.02.2015 20:10 -2,7 C 95 % 1015,9 hPa 0,0 mm O 90 0,0 km/h (0 Bft)
15.02.2015 20:15 -2,9 C 95 % 1015,9 hPa 0,0 mm O 90 0,0 km/h (0 Bft)
15.02.2015 20:20 -3,3 C 95 % 1016,1 hPa 0,0 mm O 90 0,0 km/h (0 Bft)
15.02.2015 20:25 -3,8 C 95 % 1016,1 hPa 0,0 mm O 90 0,0 km/h (0 Bft)
15.02.2015 20:30 -3,6 C 95 % 1016,2 hPa 0,0 mm O 90 0,0 km/h (0 Bft)
15.02.2015 20:35 -3,5 C 95 % 1016,3 hPa 0,0 mm O 90 3,2 km/h (1 Bft)
15.02.2015 20:40 -3,3 C 95 % 1016,3 hPa 0,0 mm O 90 1,6 km/h (1 Bft)
15.02.2015 20:45 -3,7 C 95 % 1016,4 hPa 0,0 mm O 90 3,2 km/h (1 Bft)
15.02.2015 20:50 -3,6 C 95 % 1016,4 hPa 0,0 mm O 90 3,2 km/h (1 Bft)
15.02.2015 20:55 -3,4 C 95 % 1016,5 hPa 0,0 mm O 90 3,2 km/h (1 Bft)
15.02.2015 21:00 -3,7 C 95 % 1016,6 hPa 0,0 mm O 90 1,6 km/h (1 Bft)
15.02.2015 21:05 -3,6 C 95 % 1016,7 hPa 0,0 mm O-SO 107 3,2 km/h (1 Bft)
15.02.2015 21:10 -3,4 C 95 % 1016,8 hPa 0,0 mm W 262 4,8 km/h (1 Bft)
15.02.2015 21:15 -3,5 C 95 % 1016,9 hPa 0,0 mm W 262 1,6 km/h (1 Bft)
15.02.2015 21:20 -3,0 C 95 % 1017,0 hPa 0,0 mm W 262 3,2 km/h (1 Bft)
15.02.2015 21:25 -2,6 C 95 % 1017,0 hPa 0,0 mm W 262 3,2 km/h (1 Bft)
15.02.2015 21:30 -2,4 C 95 % 1017,1 hPa 0,0 mm W 262 3,2 km/h (1 Bft)
15.02.2015 21:35 -2,5 C 95 % 1017,1 hPa 0,0 mm W 262 0,0 km/h (0 Bft)
15.02.2015 21:40 -2,7 C 95 % 1017,1 hPa 0,0 mm W 262 3,2 km/h (1 Bft)
15.02.2015 21:45 -2,8 C 95 % 1017,3 hPa 0,0 mm W 262 1,6 km/h (1 Bft)
15.02.2015 21:50 -3,0 C 95 % 1017,3 hPa 0,0 mm W 262 1,6 km/h (1 Bft)
15.02.2015 21:55 -3,2 C 95 % 1017,3 hPa 0,0 mm W 262 3,2 km/h (1 Bft)
15.02.2015 22:00 -3,3 C 95 % 1017,4 hPa 0,0 mm W 262 1,6 km/h (1 Bft)
15.02.2015 22:05 -3,7 C 95 % 1017,4 hPa 0,0 mm W 262 1,6 km/h (1 Bft)
15.02.2015 22:10 -4,1 C 95 % 1017,4 hPa 0,0 mm W 262 1,6 km/h (1 Bft)
15.02.2015 22:15 -4,2 C 95 % 1017,5 hPa 0,0 mm W 262 1,6 km/h (1 Bft)
15.02.2015 22:20 -4,0 C 95 % 1017,5 hPa 0,0 mm W 262 1,6 km/h (1 Bft)
15.02.2015 22:25 -4,2 C 95 % 1017,6 hPa 0,0 mm W 262 1,6 km/h (1 Bft)
15.02.2015 22:30 -4,5 C 95 % 1017,6 hPa 0,0 mm W 262 0,0 km/h (0 Bft)
15.02.2015 22:35 -4,9 C 95 % 1017,6 hPa 0,0 mm W 262 1,6 km/h (1 Bft)
15.02.2015 22:40 -5,1 C 95 % 1017,6 hPa 0,0 mm W 262 0,0 km/h (0 Bft)
15.02.2015 22:45 -4,7 C 95 % 1017,7 hPa 0,0 mm W 262 0,0 km/h (0 Bft)
15.02.2015 22:50 -4,7 C 95 % 1017,7 hPa 0,0 mm W 262 1,6 km/h (1 Bft)
15.02.2015 22:55 -4,6 C 95 % 1017,7 hPa 0,0 mm W 262 0,0 km/h (0 Bft)
15.02.2015 23:00 -4,9 C 95 % 1017,7 hPa 0,0 mm W 262 0,0 km/h (0 Bft)
15.02.2015 23:05 -5,1 C 95 % 1017,7 hPa 0,0 mm W 262 0,0 km/h (0 Bft)
15.02.2015 23:10 -5,2 C 95 % 1017,8 hPa 0,0 mm W 262 0,0 km/h (0 Bft)
15.02.2015 23:15 -5,2 C 95 % 1017,8 hPa 0,0 mm W 262 0,0 km/h (0 Bft)
15.02.2015 23:20 -5,1 C 95 % 1017,8 hPa 0,0 mm W 262 1,6 km/h (1 Bft)
15.02.2015 23:25 -5,1 C 95 % 1017,8 hPa 0,0 mm W 262 3,2 km/h (1 Bft)
15.02.2015 23:30 -5,1 C 95 % 1017,8 hPa 0,0 mm W 262 3,2 km/h (1 Bft)
15.02.2015 23:35 -5,3 C 95 % 1017,9 hPa 0,0 mm W 262 0,0 km/h (0 Bft)
15.02.2015 23:40 -5,4 C 95 % 1017,9 hPa 0,0 mm W 262 0,0 km/h (0 Bft)
15.02.2015 23:45 -5,4 C 95 % 1018,0 hPa 0,0 mm W 262 0,0 km/h (0 Bft)
15.02.2015 23:50 -5,8 C 95 % 1017,9 hPa 0,0 mm W 262 1,6 km/h (1 Bft)
15.02.2015 23:55 -6,0 C 95 % 1018,0 hPa 0,0 mm W 262 0,0 km/h (0 Bft)
_ Min-Zeit 23:55 12:20 01:00 - - - 18:40
Minimum _ -6,1 C 92 % 1013,2 hPa - - - 0,0 km/h (0 Bft)
_ Max-Zeit 15:25 01:45 23:45 00:00 - - 10:30
Maximum _ 1,0 C 96 % 1018,0 hPa 0,0 mm - - 20,9 km/h
O (4 Bft)
Durchschnitt _ -2,1 C 94 % 1014,4 hPa #0,0 mm O - 9,6 km/h (2 Bft)